PWSweather.com
Personal Weather Stations
Station Observations
KJ4AJP
Beautiful Downtown Gardner, Martin, TN 38237

Beautiful Downtown GardnerMartin, TN 38237

Lat: 36.358, Lon: -88.8994

Elevation: 384.3

Station Type: TP1080WC

http://weather.mambm.com/

High Low Average
Temperature 34.9°F1.6°C 0.9°F-17.3°C 16.5°F-8.6°C
Dew Point 25.9°F-3.4°C 0.1°F-17.7°C 12.9°F-10.6°C
Winds 6.0 mph 9.7 kmh Calm Calm 2.0 mph S3.2 kmh S
Wind Gusts 11.4 mph18.3 kmh 1.6 mph2.6 kmh 5.0 mph8.0 kmh
Humidity 99% 69% 86%
Pressure 30.55 in1034.5 mb 30.29 in1025.7 mb -
Precipitation 0.00 in0.0 mm - -
Hour Temp Dew Point Humidity Winds Wind Gusts Pressure Precip Precip Rate Daily Precip Total
12:00 AM 3.9°F-15.6°C 2.7°F-16.3°C 94% 0.7 mph S1.1 kmh S 2.2 mph3.5 kmh 30.57 in1035.2 mb 0.00 in0.0 mm 0.00 in0.0 mm 0.00 in0.0 mm
12:15 AM 3.9°F-15.6°C 2.9°F-16.2°C 95% Calm Calm 2.2 mph3.5 kmh 30.56 in1034.9 mb 0.00 in0.0 mm 0.00 in0.0 mm 0.00 in0.0 mm
12:30 AM 3.6°F-15.8°C 2.5°F-16.4°C 95% Calm Calm 1.6 mph2.6 kmh 30.57 in1035.2 mb 0.00 in0.0 mm 0.00 in0.0 mm 0.00 in0.0 mm
12:45 AM 3.6°F-15.8°C 2.5°F-16.4°C 95% Calm Calm 3.1 mph5.0 kmh 30.57 in1035.2 mb 0.00 in0.0 mm 0.00 in0.0 mm 0.00 in0.0 mm
01:00 AM 3.4°F-15.9°C 2.4°F-16.4°C 95% 0.7 mph S1.1 kmh S 3.1 mph5.0 kmh 30.55 in1034.5 mb 0.00 in0.0 mm 0.00 in0.0 mm 0.00 in0.0 mm
01:15 AM 3.0°F-16.1°C 2.0°F-16.7°C 95% 1.6 mph S2.6 kmh S 3.8 mph6.1 kmh 30.55 in1034.5 mb 0.00 in0.0 mm 0.00 in0.0 mm 0.00 in0.0 mm
01:30 AM 3.4°F-15.9°C 2.6°F-16.3°C 96% 1.6 mph SE2.6 kmh SE 2.2 mph3.5 kmh 30.54 in1034.2 mb 0.00 in0.0 mm 0.00 in0.0 mm 0.00 in0.0 mm
01:45 AM 3.6°F-15.8°C 2.8°F-16.2°C 96% Calm Calm 1.6 mph2.6 kmh 30.54 in1034.2 mb 0.00 in0.0 mm 0.00 in0.0 mm 0.00 in0.0 mm
02:00 AM 3.2°F-16.0°C 2.4°F-16.4°C 96% 1.6 mph SE2.6 kmh SE 2.2 mph3.5 kmh 30.54 in1034.2 mb 0.00 in0.0 mm 0.00 in0.0 mm 0.00 in0.0 mm
02:15 AM 2.3°F-16.5°C 1.3°F-17.1°C 95% Calm Calm 2.2 mph3.5 kmh 30.54 in1034.2 mb 0.00 in0.0 mm 0.00 in0.0 mm 0.00 in0.0 mm
02:30 AM 1.9°F-16.7°C 0.9°F-17.3°C 95% Calm Calm 1.6 mph2.6 kmh 30.54 in1034.2 mb 0.00 in0.0 mm 0.00 in0.0 mm 0.00 in0.0 mm
02:45 AM 1.6°F-16.9°C 0.6°F-17.4°C 95% Calm Calm 1.6 mph2.6 kmh 30.53 in1033.9 mb 0.00 in0.0 mm 0.00 in0.0 mm 0.00 in0.0 mm
03:00 AM 1.4°F-17.0°C 0.4°F-17.6°C 95% 0.7 mph S1.1 kmh S 2.2 mph3.5 kmh 30.54 in1034.2 mb 0.00 in0.0 mm 0.00 in0.0 mm 0.00 in0.0 mm
03:15 AM 1.2°F-17.1°C 0.4°F-17.6°C 96% Calm Calm 1.6 mph2.6 kmh 30.54 in1034.2 mb 0.00 in0.0 mm 0.00 in0.0 mm 0.00 in0.0 mm
03:30 AM 1.2°F-17.1°C 0.4°F-17.6°C 96% Calm Calm 2.2 mph3.5 kmh 30.53 in1033.9 mb 0.00 in0.0 mm 0.00 in0.0 mm 0.00 in0.0 mm
03:45 AM 1.0°F-17.2°C 0.3°F-17.6°C 96% Calm Calm 2.2 mph3.5 kmh 30.54 in1034.2 mb 0.00 in0.0 mm 0.00 in0.0 mm 0.00 in0.0 mm
04:00 AM 0.9°F-17.3°C 0.1°F-17.7°C 96% Calm Calm 1.6 mph2.6 kmh 30.52 in1033.5 mb 0.00 in0.0 mm 0.00 in0.0 mm 0.00 in0.0 mm
04:15 AM 0.9°F-17.3°C 0.1°F-17.7°C 96% 0.7 mph SSE1.1 kmh SSE 2.2 mph3.5 kmh 30.52 in1033.5 mb 0.00 in0.0 mm 0.00 in0.0 mm 0.00 in0.0 mm
04:30 AM 1.0°F-17.2°C 0.3°F-17.6°C 96% 1.6 mph SSE2.6 kmh SSE 2.2 mph3.5 kmh 30.52 in1033.5 mb 0.00 in0.0 mm 0.00 in0.0 mm 0.00 in0.0 mm
04:45 AM 1.2°F-17.1°C 0.4°F-17.6°C 96% 1.6 mph S2.6 kmh S 2.2 mph3.5 kmh 30.51 in1033.2 mb 0.00 in0.0 mm 0.00 in0.0 mm 0.00 in0.0 mm
05:00 AM 1.2°F-17.1°C 0.4°F-17.6°C 96% 0.7 mph SE1.1 kmh SE 2.2 mph3.5 kmh 30.51 in1033.2 mb 0.00 in0.0 mm 0.00 in0.0 mm 0.00 in0.0 mm
05:15 AM 1.0°F-17.2°C 0.3°F-17.6°C 96% 0.7 mph SE1.1 kmh SE 3.8 mph6.1 kmh 30.51 in1033.2 mb 0.00 in0.0 mm 0.00 in0.0 mm 0.00 in0.0 mm
05:30 AM 1.2°F-17.1°C 0.7°F-17.4°C 97% 0.7 mph SE1.1 kmh SE 3.1 mph5.0 kmh 30.51 in1033.2 mb 0.00 in0.0 mm 0.00 in0.0 mm 0.00 in0.0 mm
05:45 AM 1.4°F-17.0°C 0.8°F-17.3°C 97% 0.7 mph SE1.1 kmh SE 3.1 mph5.0 kmh 30.50 in1032.8 mb 0.00 in0.0 mm 0.00 in0.0 mm 0.00 in0.0 mm
06:00 AM 1.9°F-16.7°C 1.4°F-17.0°C 97% 1.6 mph SE2.6 kmh SE 3.8 mph6.1 kmh 30.50 in1032.8 mb 0.00 in0.0 mm 0.00 in0.0 mm 0.00 in0.0 mm
06:15 AM 2.3°F-16.5°C 1.7°F-16.8°C 97% 0.7 mph SE1.1 kmh SE 2.2 mph3.5 kmh 30.50 in1032.8 mb 0.00 in0.0 mm 0.00 in0.0 mm 0.00 in0.0 mm
06:30 AM 2.5°F-16.4°C 1.9°F-16.7°C 97% 0.7 mph SE1.1 kmh SE 2.2 mph3.5 kmh 30.50 in1032.8 mb 0.00 in0.0 mm 0.00 in0.0 mm 0.00 in0.0 mm
06:45 AM 1.9°F-16.7°C 1.4°F-17.0°C 97% Calm Calm 3.1 mph5.0 kmh 30.50 in1032.8 mb 0.00 in0.0 mm 0.00 in0.0 mm 0.00 in0.0 mm
07:00 AM 1.9°F-16.7°C 1.4°F-17.0°C 97% Calm Calm 1.6 mph2.6 kmh 30.50 in1032.8 mb 0.00 in0.0 mm 0.00 in0.0 mm 0.00 in0.0 mm
07:15 AM 1.9°F-16.7°C 1.4°F-17.0°C 97% 1.6 mph SE2.6 kmh SE 3.1 mph5.0 kmh 30.50 in1032.8 mb 0.00 in0.0 mm 0.00 in0.0 mm 0.00 in0.0 mm
07:30 AM 1.9°F-16.7°C 1.4°F-17.0°C 97% Calm Calm 2.2 mph3.5 kmh 30.50 in1032.8 mb 0.00 in0.0 mm 0.00 in0.0 mm 0.00 in0.0 mm
07:45 AM 1.9°F-16.7°C 1.4°F-17.0°C 97% 0.7 mph SSE1.1 kmh SSE 2.2 mph3.5 kmh 30.51 in1033.2 mb 0.00 in0.0 mm 0.00 in0.0 mm 0.00 in0.0 mm
08:00 AM 2.1°F-16.6°C 1.6°F-16.9°C 97% 0.7 mph SE1.1 kmh SE 2.2 mph3.5 kmh 30.51 in1033.2 mb 0.00 in0.0 mm 0.00 in0.0 mm 0.00 in0.0 mm
08:15 AM 2.3°F-16.5°C 2.0°F-16.7°C 98% Calm Calm 3.1 mph5.0 kmh 30.50 in1032.8 mb 0.00 in0.0 mm 0.00 in0.0 mm 0.00 in0.0 mm
08:30 AM 2.5°F-16.4°C 2.1°F-16.6°C 98% Calm Calm 3.1 mph5.0 kmh 30.50 in1032.8 mb 0.00 in0.0 mm 0.00 in0.0 mm 0.00 in0.0 mm
08:45 AM 3.0°F-16.1°C 2.7°F-16.3°C 98% Calm Calm 3.1 mph5.0 kmh 30.50 in1032.8 mb 0.00 in0.0 mm 0.00 in0.0 mm 0.00 in0.0 mm
09:00 AM 5.2°F-14.9°C 5.0°F-15.0°C 99% 2.2 mph S3.5 kmh S 4.5 mph7.2 kmh 30.50 in1032.8 mb 0.00 in0.0 mm 0.00 in0.0 mm 0.00 in0.0 mm
09:15 AM 8.2°F-13.2°C 8.1°F-13.3°C 99% 2.2 mph S3.5 kmh S 5.4 mph8.7 kmh 30.50 in1032.8 mb 0.00 in0.0 mm 0.00 in0.0 mm 0.00 in0.0 mm
09:30 AM 11.3°F-11.5°C 11.1°F-11.6°C 99% 1.6 mph S2.6 kmh S 4.5 mph7.2 kmh 30.50 in1032.8 mb 0.00 in0.0 mm 0.00 in0.0 mm 0.00 in0.0 mm
09:45 AM 13.6°F-10.2°C 13.5°F-10.3°C 99% 2.2 mph S3.5 kmh S 3.8 mph6.1 kmh 30.51 in1033.2 mb 0.00 in0.0 mm 0.00 in0.0 mm 0.00 in0.0 mm
10:00 AM 15.6°F-9.1°C 15.4°F-9.2°C 99% 1.6 mph S2.6 kmh S 5.4 mph8.7 kmh 30.50 in1032.8 mb 0.00 in0.0 mm 0.00 in0.0 mm 0.00 in0.0 mm
10:15 AM 17.1°F-8.3°C 16.6°F-8.6°C 98% 3.8 mph S6.1 kmh S 6.0 mph9.7 kmh 30.51 in1033.2 mb 0.00 in0.0 mm 0.00 in0.0 mm 0.00 in0.0 mm
10:30 AM 17.6°F-8.0°C 16.7°F-8.5°C 96% 0.7 mph S1.1 kmh S 6.0 mph9.7 kmh 30.52 in1033.5 mb 0.00 in0.0 mm 0.00 in0.0 mm 0.00 in0.0 mm
10:45 AM 19.6°F-6.9°C 18.4°F-7.6°C 95% 2.2 mph S3.5 kmh S 4.5 mph7.2 kmh 30.52 in1033.5 mb 0.00 in0.0 mm 0.00 in0.0 mm 0.00 in0.0 mm
11:00 AM 21.4°F-5.9°C 19.5°F-6.9°C 92% 3.1 mph SSW5.0 kmh SSW 5.4 mph8.7 kmh 30.52 in1033.5 mb 0.00 in0.0 mm 0.00 in0.0 mm 0.00 in0.0 mm
11:15 AM 22.5°F-5.3°C 19.7°F-6.8°C 89% 3.8 mph S6.1 kmh S 6.0 mph9.7 kmh 30.52 in1033.5 mb 0.00 in0.0 mm 0.00 in0.0 mm 0.00 in0.0 mm
11:30 AM 23.0°F-5.0°C 19.7°F-6.8°C 87% 3.8 mph S6.1 kmh S 7.6 mph12.2 kmh 30.52 in1033.5 mb 0.00 in0.0 mm 0.00 in0.0 mm 0.00 in0.0 mm
11:45 AM 23.9°F-4.5°C 20.1°F-6.6°C 85% 3.8 mph S6.1 kmh S 8.3 mph13.4 kmh 30.50 in1032.8 mb 0.00 in0.0 mm 0.00 in0.0 mm 0.00 in0.0 mm
12:00 PM 25.0°F-3.9°C 20.6°F-6.3°C 83% 6.0 mph S9.7 kmh S 8.3 mph13.4 kmh 30.50 in1032.8 mb 0.00 in0.0 mm 0.00 in0.0 mm 0.00 in0.0 mm
12:15 PM 26.2°F-3.2°C 21.5°F-5.8°C 82% 2.2 mph S3.5 kmh S 8.3 mph13.4 kmh 30.50 in1032.8 mb 0.00 in0.0 mm 0.00 in0.0 mm 0.00 in0.0 mm
12:30 PM 27.1°F-2.7°C 21.8°F-5.7°C 80% 1.6 mph SSW2.6 kmh SSW 9.8 mph15.8 kmh 30.48 in1032.2 mb 0.00 in0.0 mm 0.00 in0.0 mm 0.00 in0.0 mm
12:45 PM 28.0°F-2.2°C 22.1°F-5.5°C 78% 6.0 mph S9.7 kmh S 9.8 mph15.8 kmh 30.47 in1031.8 mb 0.00 in0.0 mm 0.00 in0.0 mm 0.00 in0.0 mm
01:00 PM 28.6°F-1.9°C 22.3°F-5.4°C 77% 5.4 mph S8.7 kmh S 9.2 mph14.8 kmh 30.46 in1031.5 mb 0.00 in0.0 mm 0.00 in0.0 mm 0.00 in0.0 mm
01:15 PM 30.0°F-1.1°C 23.7°F-4.6°C 77% 3.1 mph S5.0 kmh S 9.2 mph14.8 kmh 30.46 in1031.5 mb 0.00 in0.0 mm 0.00 in0.0 mm 0.00 in0.0 mm
01:30 PM 30.9°F-0.6°C 24.0°F-4.4°C 75% 2.2 mph S3.5 kmh S 10.7 mph17.2 kmh 30.45 in1031.2 mb 0.00 in0.0 mm 0.00 in0.0 mm 0.00 in0.0 mm
01:45 PM 31.5°F-0.3°C 24.2°F-4.3°C 74% 3.8 mph S6.1 kmh S 11.4 mph18.3 kmh 30.43 in1030.5 mb 0.00 in0.0 mm 0.00 in0.0 mm 0.00 in0.0 mm
02:00 PM 32.0°F0.0°C 24.4°F-4.2°C 73% 3.8 mph S6.1 kmh S 8.3 mph13.4 kmh 30.42 in1030.1 mb 0.00 in0.0 mm 0.00 in0.0 mm 0.00 in0.0 mm
02:15 PM 32.9°F0.5°C 25.2°F-3.8°C 73% 3.8 mph S6.1 kmh S 10.7 mph17.2 kmh 30.40 in1029.5 mb 0.00 in0.0 mm 0.00 in0.0 mm 0.00 in0.0 mm
02:30 PM 31.6°F-0.2°C 23.7°F-4.6°C 72% 3.8 mph S6.1 kmh S 11.4 mph18.3 kmh 30.40 in1029.5 mb 0.00 in0.0 mm 0.00 in0.0 mm 0.00 in0.0 mm
02:45 PM 33.6°F0.9°C 25.6°F-3.6°C 72% 3.1 mph SSW5.0 kmh SSW 6.9 mph11.1 kmh 30.40 in1029.5 mb 0.00 in0.0 mm 0.00 in0.0 mm 0.00 in0.0 mm
03:00 PM 34.7°F1.5°C 25.9°F-3.4°C 70% 3.1 mph SSW5.0 kmh SSW 6.9 mph11.1 kmh 30.40 in1029.5 mb 0.00 in0.0 mm 0.00 in0.0 mm 0.00 in0.0 mm
03:15 PM 34.9°F1.6°C 25.8°F-3.4°C 69% 3.1 mph S5.0 kmh S 7.6 mph12.2 kmh 30.39 in1029.1 mb 0.00 in0.0 mm 0.00 in0.0 mm 0.00 in0.0 mm
03:30 PM 34.5°F1.4°C 25.4°F-3.7°C 69% 3.8 mph SSW6.1 kmh SSW 9.8 mph15.8 kmh 30.39 in1029.1 mb 0.00 in0.0 mm 0.00 in0.0 mm 0.00 in0.0 mm
03:45 PM 34.7°F1.5°C 25.6°F-3.6°C 69% 3.8 mph S6.1 kmh S 7.6 mph12.2 kmh 30.39 in1029.1 mb 0.00 in0.0 mm 0.00 in0.0 mm 0.00 in0.0 mm
04:00 PM 33.6°F0.9°C 24.6°F-4.1°C 69% 2.2 mph S3.5 kmh S 9.2 mph14.8 kmh 30.38 in1028.8 mb 0.00 in0.0 mm 0.00 in0.0 mm 0.00 in0.0 mm
04:15 PM 33.3°F0.7°C 24.2°F-4.3°C 69% 5.4 mph S8.7 kmh S 9.8 mph15.8 kmh 30.38 in1028.8 mb 0.00 in0.0 mm 0.00 in0.0 mm 0.00 in0.0 mm
04:30 PM 33.3°F0.7°C 24.2°F-4.3°C 69% 3.8 mph S6.1 kmh S 8.3 mph13.4 kmh 30.37 in1028.4 mb 0.00 in0.0 mm 0.00 in0.0 mm 0.00 in0.0 mm
04:45 PM 32.9°F0.5°C 23.9°F-4.5°C 69% 4.5 mph S7.2 kmh S 10.7 mph17.2 kmh 30.37 in1028.4 mb 0.00 in0.0 mm 0.00 in0.0 mm 0.00 in0.0 mm
05:00 PM 32.5°F0.3°C 23.9°F-4.5°C 70% 3.1 mph S5.0 kmh S 6.9 mph11.1 kmh 30.37 in1028.4 mb 0.00 in0.0 mm 0.00 in0.0 mm 0.00 in0.0 mm
05:15 PM 32.5°F0.3°C 23.9°F-4.5°C 70% 4.5 mph S7.2 kmh S 6.9 mph11.1 kmh 30.35 in1027.8 mb 0.00 in0.0 mm 0.00 in0.0 mm 0.00 in0.0 mm
05:30 PM 32.2°F0.1°C 23.5°F-4.7°C 70% 1.6 mph SSE2.6 kmh SSE 5.4 mph8.7 kmh 30.35 in1027.8 mb 0.00 in0.0 mm 0.00 in0.0 mm 0.00 in0.0 mm
05:45 PM 30.0°F-1.1°C 21.5°F-5.8°C 70% 3.8 mph S6.1 kmh S 9.2 mph14.8 kmh 30.34 in1027.4 mb 0.00 in0.0 mm 0.00 in0.0 mm 0.00 in0.0 mm
06:00 PM 28.0°F-2.2°C 19.9°F-6.7°C 71% 2.2 mph S3.5 kmh S 7.6 mph12.2 kmh 30.34 in1027.4 mb 0.00 in0.0 mm 0.00 in0.0 mm 0.00 in0.0 mm
06:15 PM 26.6°F-3.0°C 18.8°F-7.3°C 72% 3.8 mph S6.1 kmh S 5.4 mph8.7 kmh 30.33 in1027.1 mb 0.00 in0.0 mm 0.00 in0.0 mm 0.00 in0.0 mm
06:30 PM 25.3°F-3.7°C 18.3°F-7.6°C 74% 3.1 mph S5.0 kmh S 7.6 mph12.2 kmh 30.34 in1027.4 mb 0.00 in0.0 mm 0.00 in0.0 mm 0.00 in0.0 mm
06:45 PM 24.8°F-4.0°C 18.0°F-7.8°C 75% 0.7 mph S1.1 kmh S 2.2 mph3.5 kmh 30.35 in1027.8 mb 0.00 in0.0 mm 0.00 in0.0 mm 0.00 in0.0 mm
07:00 PM 23.9°F-4.5°C 17.5°F-8.1°C 76% Calm Calm 5.4 mph8.7 kmh 30.34 in1027.4 mb 0.00 in0.0 mm 0.00 in0.0 mm 0.00 in0.0 mm
07:15 PM 23.0°F-5.0°C 16.9°F-8.4°C 77% Calm Calm 3.8 mph6.1 kmh 30.34 in1027.4 mb 0.00 in0.0 mm 0.00 in0.0 mm 0.00 in0.0 mm
07:30 PM 21.9°F-5.6°C 16.4°F-8.7°C 79% Calm Calm 3.1 mph5.0 kmh 30.34 in1027.4 mb 0.00 in0.0 mm 0.00 in0.0 mm 0.00 in0.0 mm
07:45 PM 21.6°F-5.8°C 16.4°F-8.7°C 80% 1.6 mph SE2.6 kmh SE 3.1 mph5.0 kmh 30.34 in1027.4 mb 0.00 in0.0 mm 0.00 in0.0 mm 0.00 in0.0 mm
08:00 PM 21.2°F-6.0°C 16.3°F-8.7°C 81% 1.6 mph SE2.6 kmh SE 3.1 mph5.0 kmh 30.33 in1027.1 mb 0.00 in0.0 mm 0.00 in0.0 mm 0.00 in0.0 mm
08:15 PM 20.7°F-6.3°C 15.8°F-9.0°C 81% 1.6 mph S2.6 kmh S 3.8 mph6.1 kmh 30.32 in1026.8 mb 0.00 in0.0 mm 0.00 in0.0 mm 0.00 in0.0 mm
08:30 PM 20.3°F-6.5°C 15.7°F-9.1°C 82% 2.2 mph S3.5 kmh S 4.5 mph7.2 kmh 30.32 in1026.8 mb 0.00 in0.0 mm 0.00 in0.0 mm 0.00 in0.0 mm
08:45 PM 19.9°F-6.7°C 15.4°F-9.2°C 82% 1.6 mph S2.6 kmh S 5.4 mph8.7 kmh 30.32 in1026.8 mb 0.00 in0.0 mm 0.00 in0.0 mm 0.00 in0.0 mm
09:00 PM 19.6°F-6.9°C 15.0°F-9.4°C 82% 1.6 mph S2.6 kmh S 3.8 mph6.1 kmh 30.31 in1026.4 mb 0.00 in0.0 mm 0.00 in0.0 mm 0.00 in0.0 mm
09:15 PM 19.2°F-7.1°C 15.0°F-9.4°C 83% 1.6 mph SSE2.6 kmh SSE 3.1 mph5.0 kmh 30.31 in1026.4 mb 0.00 in0.0 mm 0.00 in0.0 mm 0.00 in0.0 mm
09:30 PM 18.9°F-7.3°C 14.6°F-9.7°C 83% 2.2 mph S3.5 kmh S 5.4 mph8.7 kmh 30.30 in1026.1 mb 0.00 in0.0 mm 0.00 in0.0 mm 0.00 in0.0 mm
09:45 PM 18.3°F-7.6°C 14.3°F-9.8°C 84% 0.7 mph S1.1 kmh S 4.5 mph7.2 kmh 30.30 in1026.1 mb 0.00 in0.0 mm 0.00 in0.0 mm 0.00 in0.0 mm
10:00 PM 18.5°F-7.5°C 14.8°F-9.6°C 85% 1.6 mph S2.6 kmh S 3.8 mph6.1 kmh 30.30 in1026.1 mb 0.00 in0.0 mm 0.00 in0.0 mm 0.00 in0.0 mm
10:15 PM 18.5°F-7.5°C 14.8°F-9.6°C 85% 0.7 mph S1.1 kmh S 3.8 mph6.1 kmh 30.31 in1026.4 mb 0.00 in0.0 mm 0.00 in0.0 mm 0.00 in0.0 mm
10:30 PM 18.5°F-7.5°C 15.1°F-9.4°C 86% 1.6 mph S2.6 kmh S 3.8 mph6.1 kmh 30.31 in1026.4 mb 0.00 in0.0 mm 0.00 in0.0 mm 0.00 in0.0 mm
10:45 PM 18.5°F-7.5°C 15.1°F-9.4°C 86% 1.6 mph S2.6 kmh S 3.8 mph6.1 kmh 30.31 in1026.4 mb 0.00 in0.0 mm 0.00 in0.0 mm 0.00 in0.0 mm
11:00 PM 18.0°F-7.8°C 14.5°F-9.7°C 86% 0.7 mph S1.1 kmh S 3.8 mph6.1 kmh 30.31 in1026.4 mb 0.00 in0.0 mm 0.00 in0.0 mm 0.00 in0.0 mm
11:15 PM 18.1°F-7.7°C 14.7°F-9.6°C 86% 1.6 mph S2.6 kmh S 4.5 mph7.2 kmh 30.31 in1026.4 mb 0.00 in0.0 mm 0.00 in0.0 mm 0.00 in0.0 mm
11:30 PM 18.0°F-7.8°C 14.5°F-9.7°C 86% 0.7 mph SW1.1 kmh SW 3.1 mph5.0 kmh 30.31 in1026.4 mb 0.00 in0.0 mm 0.00 in0.0 mm 0.00 in0.0 mm
11:45 PM 17.8°F-7.9°C 14.4°F-9.8°C 86% 0.7 mph SSW1.1 kmh SSW 3.1 mph5.0 kmh 30.31 in1026.4 mb 0.00 in0.0 mm 0.00 in0.0 mm 0.00 in0.0 mm